Time;durP1;ratioP1;P1;durP2;ratioP2;P2;SDS_P1;SDS_P2;PMS_P1;PMS_P2;Temp;Humidity;BMP_temperature;BMP_pressure;BME280_temperature;BME280_humidity;BME280_pressure;Samples;Min_cycle;Max_cycle;Signal;HPM_P1;HPM_P2
2024/04/08 00:00:56;;;;;;;4.07;3.77;;;;;;;;;;5456172;26;20234;-75
2024/04/08 00:03:25;;;;;;;4.67;3.63;;;;;;;;;;5453259;26;20472;-74
2024/04/08 00:05:50;;;;;;;5.17;3.40;;;;;;;;;;5464967;26;20544;-75
2024/04/08 00:08:18;;;;;;;4.83;3.80;;;;;;;;;;5454433;26;20992;-75
2024/04/08 00:10:44;;;;;;;6.10;4.10;;;;;;;;;;5456665;26;20262;-75
2024/04/08 00:13:12;;;;;;;4.63;4.23;;;;;;;;;;5436929;26;20533;-75
2024/04/08 00:15:38;;;;;;;5.50;4.20;;;;;;;;;;5459331;26;20230;-75
2024/04/08 00:18:08;;;;;;;5.10;3.57;;;;;;;;;;5454220;26;20471;-75
2024/04/08 00:20:34;;;;;;;4.33;3.83;;;;;;;;;;5452189;26;20230;-75
2024/04/08 00:23:03;;;;;;;5.63;3.90;;;;;;;;;;5447249;26;20515;-75
2024/04/08 00:25:29;;;;;;;4.17;3.57;;;;;;;;;;5456517;26;20234;-75
2024/04/08 00:27:57;;;;;;;4.33;3.50;;;;;;;;;;5452035;26;20532;-74
2024/04/08 00:30:23;;;;;;;4.13;3.53;;;;;;;;;;5462773;26;20484;-75
2024/04/08 00:32:52;;;;;;;5.40;3.87;;;;;;;;;;5447071;26;20574;-75
2024/04/08 00:35:20;;;;;;;7.20;4.03;;;;;;;;;;5451039;26;20273;-75
2024/04/08 00:37:48;;;;;;;5.60;3.73;;;;;;;;;;5455212;26;20462;-75
2024/04/08 00:40:14;;;;;;;6.37;4.10;;;;;;;;;;5451652;26;20543;-75
2024/04/08 00:42:42;;;;;;;5.83;5.10;;;;;;;;;;5460864;26;20456;-74
2024/04/08 00:45:07;;;;;;;4.73;3.43;;;;;;;;;;5460999;26;20313;-75
2024/04/08 00:47:36;;;;;;;8.67;4.20;;;;;;;;;;5449973;26;20959;-75
2024/04/08 00:50:01;;;;;;;6.63;3.87;;;;;;;;;;5459770;26;20700;-76
2024/04/08 00:52:32;;;;;;;8.00;4.40;;;;;;;;;;5446016;26;20551;-76
2024/04/08 00:54:58;;;;;;;4.23;3.83;;;;;;;;;;5453078;26;20238;-74
2024/04/08 00:57:27;;;;;;;6.03;4.07;;;;;;;;;;5466201;26;20473;-75
2024/04/08 00:59:53;;;;;;;4.60;3.80;;;;;;;;;;5449631;26;20268;-76
2024/04/08 01:02:21;;;;;;;5.00;3.90;;;;;;;;;;5453539;26;20518;-75
2024/04/08 01:04:47;;;;;;;8.27;4.23;;;;;;;;;;5453322;26;20511;-75
2024/04/08 01:07:15;;;;;;;5.40;3.77;;;;;;;;;;5462523;26;20475;-76
2024/04/08 01:09:43;;;;;;;6.77;3.80;;;;;;;;;;5464391;26;20230;-75
2024/04/08 01:12:12;;;;;;;8.33;4.40;;;;;;;;;;5445987;26;20469;-77
2024/04/08 01:14:37;;;;;;;8.50;5.10;;;;;;;;;;5473014;26;20472;-76
2024/04/08 01:17:06;;;;;;;7.63;4.40;;;;;;;;;;5451633;26;20546;-76
2024/04/08 01:19:32;;;;;;;8.20;4.90;;;;;;;;;;5442918;26;20313;-78
2024/04/08 01:22:00;;;;;;;8.63;5.10;;;;;;;;;;5457682;26;20472;-77
2024/04/08 01:24:29;;;;;;;9.10;5.73;;;;;;;;;;5454829;26;20226;-75
2024/04/08 01:26:58;;;;;;;5.53;5.03;;;;;;;;;;5438486;26;20452;-77
2024/04/08 01:29:23;;;;;;;18.67;7.00;;;;;;;;;;5458447;26;20456;-78
2024/04/08 01:31:51;;;;;;;7.50;4.80;;;;;;;;;;5458387;26;21089;-77
2024/04/08 01:34:17;;;;;;;5.70;4.60;;;;;;;;;;5459016;26;20260;-76
2024/04/08 01:36:46;;;;;;;8.20;4.73;;;;;;;;;;5457073;26;20471;-77
2024/04/08 01:39:11;;;;;;;5.27;4.60;;;;;;;;;;5459905;26;20233;-76
2024/04/08 01:41:42;;;;;;;8.77;5.97;;;;;;;;;;5454920;26;20520;-77
2024/04/08 01:44:08;;;;;;;7.33;4.43;;;;;;;;;;5462401;26;20301;-75
2024/04/08 01:46:36;;;;;;;7.33;4.83;;;;;;;;;;5474240;26;20515;-75
2024/04/08 01:49:02;;;;;;;5.87;5.27;;;;;;;;;;5467847;26;20336;-77
2024/04/08 01:51:30;;;;;;;7.20;5.30;;;;;;;;;;5462603;26;20461;-77
2024/04/08 01:53:55;;;;;;;8.73;5.03;;;;;;;;;;5458498;26;20353;-76
2024/04/08 01:56:23;;;;;;;8.60;5.17;;;;;;;;;;5450526;26;20477;-75
2024/04/08 01:58:52;;;;;;;17.93;6.83;;;;;;;;;;5456533;26;20282;-77
2024/04/08 02:01:20;;;;;;;10.80;4.93;;;;;;;;;;5462869;26;20673;-77
2024/04/08 02:03:46;;;;;;;8.77;5.53;;;;;;;;;;5458015;26;20468;-76
2024/04/08 02:06:14;;;;;;;7.03;5.10;;;;;;;;;;5465186;26;20451;-76
2024/04/08 02:08:40;;;;;;;6.27;4.80;;;;;;;;;;5449365;26;20568;-76
2024/04/08 02:11:08;;;;;;;8.63;5.30;;;;;;;;;;5452422;26;21130;-74
2024/04/08 02:13:33;;;;;;;6.60;5.37;;;;;;;;;;5458847;26;20300;-74
2024/04/08 02:16:07;;;;;;;6.10;5.00;;;;;;;;;;5457606;26;20570;-76
2024/04/08 02:18:33;;;;;;;6.07;4.80;;;;;;;;;;5446868;26;20234;-75
2024/04/08 02:21:01;;;;;;;9.90;5.30;;;;;;;;;;5455545;26;20522;-76
2024/04/08 02:23:26;;;;;;;6.13;4.83;;;;;;;;;;5444481;26;20239;-76
2024/04/08 02:25:55;;;;;;;7.80;4.83;;;;;;;;;;5461852;26;20811;-75
2024/04/08 02:28:20;;;;;;;6.30;5.20;;;;;;;;;;5459672;26;20296;-76
2024/04/08 02:30:48;;;;;;;6.97;5.03;;;;;;;;;;5454350;26;20484;-75
2024/04/08 02:33:17;;;;;;;7.83;4.97;;;;;;;;;;5461196;26;20304;-76
2024/04/08 02:35:45;;;;;;;7.90;4.87;;;;;;;;;;5460698;26;20550;-76
2024/04/08 02:38:10;;;;;;;8.80;4.80;;;;;;;;;;5451618;26;20557;-76
2024/04/08 02:40:39;;;;;;;7.27;4.53;;;;;;;;;;5443972;26;20472;-75
2024/04/08 02:43:04;;;;;;;8.67;4.87;;;;;;;;;;5456317;26;20235;-74
2024/04/08 02:45:32;;;;;;;8.23;5.57;;;;;;;;;;5457123;26;20621;-76
2024/04/08 02:47:58;;;;;;;6.37;4.87;;;;;;;;;;5451715;26;20281;-76
2024/04/08 02:50:29;;;;;;;6.10;5.20;;;;;;;;;;5464346;26;20472;-76
2024/04/08 02:52:55;;;;;;;9.20;5.00;;;;;;;;;;5464772;26;20226;-76
2024/04/08 02:55:23;;;;;;;10.20;7.57;;;;;;;;;;5442851;26;20469;-75
2024/04/08 02:57:49;;;;;;;7.03;5.60;;;;;;;;;;5465369;26;20238;-76
2024/04/08 03:00:17;;;;;;;10.00;5.27;;;;;;;;;;5444597;26;20479;-76
2024/04/08 03:02:43;;;;;;;7.60;4.90;;;;;;;;;;5455219;26;20576;-75
2024/04/08 03:05:11;;;;;;;7.20;4.50;;;;;;;;;;5445023;26;20468;-76
2024/04/08 03:07:39;;;;;;;6.33;4.80;;;;;;;;;;5439788;26;20230;-76
2024/04/08 03:10:08;;;;;;;5.73;4.90;;;;;;;;;;5453528;26;20538;-76
2024/04/08 03:12:34;;;;;;;8.13;5.83;;;;;;;;;;5467179;26;20503;-74
2024/04/08 03:15:02;;;;;;;7.53;5.70;;;;;;;;;;5455505;26;20456;-73
2024/04/08 03:17:27;;;;;;;8.30;6.10;;;;;;;;;;5460552;26;20257;-73
2024/04/08 03:19:57;;;;;;;10.00;5.87;;;;;;;;;;5449293;26;20445;-73
2024/04/08 03:22:23;;;;;;;12.03;6.10;;;;;;;;;;5454497;26;20298;-73
2024/04/08 03:24:54;;;;;;;7.80;6.47;;;;;;;;;;5460432;26;20555;-73
2024/04/08 03:27:20;;;;;;;11.63;6.10;;;;;;;;;;5456159;26;20269;-73
2024/04/08 03:29:48;;;;;;;9.27;6.57;;;;;;;;;;5465204;26;20467;-74
2024/04/08 03:32:13;;;;;;;8.03;6.43;;;;;;;;;;5444694;26;20913;-74
2024/04/08 03:34:41;;;;;;;9.47;6.20;;;;;;;;;;5459715;26;20464;-74
2024/04/08 03:37:10;;;;;;;13.80;6.80;;;;;;;;;;5453739;26;20231;-73
2024/04/08 03:39:38;;;;;;;9.77;7.27;;;;;;;;;;5457794;26;20643;-73
2024/04/08 03:42:09;;;;;;;11.47;7.70;;;;;;;;;;5455079;26;20528;-73
2024/04/08 03:44:37;;;;;;;10.30;6.50;;;;;;;;;;5458557;26;20468;-73
2024/04/08 03:47:06;;;;;;;7.10;5.93;;;;;;;;;;5446447;26;21044;-73
2024/04/08 03:49:34;;;;;;;7.17;6.23;;;;;;;;;;5468402;26;20456;-73
2024/04/08 03:52:00;;;;;;;8.90;6.63;;;;;;;;;;5447776;26;20898;-73
2024/04/08 03:54:28;;;;;;;12.73;6.77;;;;;;;;;;5447811;26;20547;-73
2024/04/08 03:56:53;;;;;;;11.97;7.43;;;;;;;;;;5454409;26;20242;-74
2024/04/08 03:59:24;;;;;;;11.10;7.27;;;;;;;;;;5460816;26;20528;-73
2024/04/08 04:01:50;;;;;;;10.90;6.97;;;;;;;;;;5461104;26;20229;-73
2024/04/08 04:04:18;;;;;;;9.80;6.50;;;;;;;;;;5447627;26;20479;-74
2024/04/08 04:06:43;;;;;;;11.83;7.37;;;;;;;;;;5451743;26;20279;-73
2024/04/08 04:09:12;;;;;;;10.57;7.40;;;;;;;;;;5456472;26;20484;-73
2024/04/08 04:11:38;;;;;;;13.40;8.30;;;;;;;;;;5451590;26;20688;-73
2024/04/08 04:14:06;;;;;;;10.43;8.47;;;;;;;;;;5461236;26;21030;-74
2024/04/08 04:16:35;;;;;;;10.13;7.67;;;;;;;;;;5451132;26;20309;-74
2024/04/08 04:19:03;;;;;;;12.93;8.00;;;;;;;;;;5447007;26;20811;-74
2024/04/08 04:21:28;;;;;;;12.83;7.70;;;;;;;;;;5450316;26;20471;-73
2024/04/08 04:23:57;;;;;;;14.90;8.13;;;;;;;;;;5446622;26;20562;-74
2024/04/08 04:26:23;;;;;;;13.30;9.00;;;;;;;;;;5441815;26;20227;-73
2024/04/08 04:28:51;;;;;;;11.10;8.57;;;;;;;;;;5458678;26;20472;-74
2024/04/08 04:31:16;;;;;;;16.80;9.63;;;;;;;;;;5448701;26;20487;-74
2024/04/08 04:33:47;;;;;;;15.93;10.33;;;;;;;;;;5458491;26;20534;-74
2024/04/08 04:36:13;;;;;;;12.60;9.60;;;;;;;;;;5448870;26;20657;-73
2024/04/08 04:38:41;;;;;;;13.07;9.27;;;;;;;;;;5449498;26;20562;-74
2024/04/08 04:41:07;;;;;;;19.40;10.10;;;;;;;;;;5444918;26;20265;-74
2024/04/08 04:43:35;;;;;;;13.13;10.40;;;;;;;;;;5455517;26;20464;-74
2024/04/08 04:46:01;;;;;;;11.00;9.30;;;;;;;;;;5445385;26;20348;-73
2024/04/08 04:48:29;;;;;;;17.43;10.30;;;;;;;;;;5469379;26;20471;-73
2024/04/08 04:50:57;;;;;;;12.13;7.87;;;;;;;;;;5453097;26;20234;-73
2024/04/08 04:53:26;;;;;;;16.70;8.90;;;;;;;;;;5441771;26;20460;-73
2024/04/08 04:55:52;;;;;;;15.20;9.50;;;;;;;;;;5449663;26;20464;-73
2024/04/08 04:58:20;;;;;;;12.40;9.37;;;;;;;;;;5444773;26;20515;-73
2024/04/08 05:00:46;;;;;;;14.23;9.80;;;;;;;;;;5438528;26;20507;-73
2024/04/08 05:03:15;;;;;;;15.90;10.13;;;;;;;;;;5439513;26;20481;-73
2024/04/08 05:05:40;;;;;;;18.20;9.20;;;;;;;;;;5452187;26;20527;-74
2024/04/08 05:08:11;;;;;;;13.30;8.90;;;;;;;;;;5454595;26;20468;-69
2024/04/08 05:10:37;;;;;;;14.53;9.77;;;;;;;;;;5445675;26;20239;-69
2024/04/08 05:13:06;;;;;;;11.20;8.33;;;;;;;;;;5445227;26;20469;-65
2024/04/08 05:15:32;;;;;;;11.30;9.00;;;;;;;;;;5435839;26;21096;-63
2024/04/08 05:18:00;;;;;;;12.50;8.30;;;;;;;;;;5438366;26;20479;-63
2024/04/08 05:20:28;;;;;;;19.40;9.27;;;;;;;;;;5442954;26;20326;-63
2024/04/08 05:22:57;;;;;;;10.00;8.90;;;;;;;;;;5448481;26;20538;-63
2024/04/08 05:25:25;;;;;;;11.37;8.80;;;;;;;;;;5442676;26;20581;-64
2024/04/08 05:27:53;;;;;;;11.60;9.07;;;;;;;;;;5440302;26;20469;-64
2024/04/08 05:30:19;;;;;;;11.17;8.47;;;;;;;;;;5454488;26;20523;-63
2024/04/08 05:32:47;;;;;;;15.10;8.80;;;;;;;;;;5448186;26;20479;-64
2024/04/08 05:35:13;;;;;;;11.70;7.90;;;;;;;;;;5450969;26;20230;-64
2024/04/08 05:37:42;;;;;;;12.20;8.33;;;;;;;;;;5454270;26;20464;-63
2024/04/08 05:40:13;;;;;;;9.33;7.90;;;;;;;;;;5445153;26;20234;-66
2024/04/08 05:42:44;;;;;;;11.40;7.63;;;;;;;;;;5461258;26;20468;-66
2024/04/08 05:45:10;;;;;;;14.10;7.17;;;;;;;;;;5448581;26;20468;-65
2024/04/08 05:47:36;;;;;;;9.37;7.00;;;;;;;;;;5465239;26;20754;-64
2024/04/08 05:50:04;;;;;;;13.33;8.37;;;;;;;;;;5458287;26;20460;-64
2024/04/08 05:52:30;;;;;;;15.03;8.63;;;;;;;;;;5459046;26;20333;-64
2024/04/08 05:54:58;;;;;;;8.40;7.00;;;;;;;;;;5451732;26;20483;-64
2024/04/08 05:57:24;;;;;;;8.80;7.03;;;;;;;;;;5454083;26;20345;-67
2024/04/08 05:59:55;;;;;;;9.63;7.10;;;;;;;;;;5455183;26;20899;-66
2024/04/08 06:02:21;;;;;;;8.23;6.90;;;;;;;;;;5453085;26;20473;-65
2024/04/08 06:04:49;;;;;;;7.83;7.00;;;;;;;;;;5460298;26;20529;-65
2024/04/08 06:07:15;;;;;;;8.63;6.60;;;;;;;;;;5453046;26;20236;-70
2024/04/08 06:09:43;;;;;;;8.97;6.80;;;;;;;;;;5450726;26;20577;-70
2024/04/08 06:12:09;;;;;;;9.70;7.90;;;;;;;;;;5474270;26;20524;-70
2024/04/08 06:14:37;;;;;;;11.10;7.00;;;;;;;;;;5450786;26;20457;-71
2024/04/08 06:17:05;;;;;;;9.43;6.10;;;;;;;;;;5446591;26;20231;-70
2024/04/08 06:19:34;;;;;;;14.13;6.47;;;;;;;;;;5435978;26;20975;-70
2024/04/08 06:21:59;;;;;;;6.63;5.50;;;;;;;;;;5450531;26;20570;-70
2024/04/08 06:24:27;;;;;;;8.40;6.10;;;;;;;;;;5456960;26;20462;-69
2024/04/08 06:26:53;;;;;;;8.80;7.90;;;;;;;;;;5457843;26;20235;-70
2024/04/08 06:29:21;;;;;;;8.40;6.83;;;;;;;;;;5455821;26;20571;-71
2024/04/08 06:31:48;;;;;;;8.87;5.83;;;;;;;;;;5436739;26;20396;-70
2024/04/08 06:34:19;;;;;;;6.37;5.77;;;;;;;;;;5454538;26;20472;-72
2024/04/08 06:36:45;;;;;;;8.10;6.77;;;;;;;;;;5464946;26;20468;-71
2024/04/08 06:39:13;;;;;;;8.23;6.00;;;;;;;;;;5452086;26;20468;-69
2024/04/08 06:41:40;;;;;;;10.00;6.40;;;;;;;;;;5470079;26;20230;-68
2024/04/08 06:44:09;;;;;;;7.40;6.60;;;;;;;;;;5475871;26;21153;-68
2024/04/08 06:46:34;;;;;;;7.93;6.20;;;;;;;;;;5460891;26;20462;-71
2024/04/08 06:49:02;;;;;;;9.93;5.70;;;;;;;;;;5437368;26;21339;-71
2024/04/08 06:51:31;;;;;;;8.27;6.13;;;;;;;;;;5449405;26;20234;-72
2024/04/08 06:53:59;;;;;;;8.47;7.10;;;;;;;;;;5458607;26;20510;-72
2024/04/08 06:56:25;;;;;;;8.27;6.57;;;;;;;;;;5456140;26;20526;-71
2024/04/08 06:58:53;;;;;;;9.90;6.47;;;;;;;;;;5451498;26;20469;-72
2024/04/08 07:01:20;;;;;;;7.67;6.87;;;;;;;;;;5458296;26;20547;-72
2024/04/08 07:03:48;;;;;;;11.70;6.80;;;;;;;;;;5458025;26;20472;-73
2024/04/08 07:06:13;;;;;;;8.17;6.37;;;;;;;;;;5457478;26;20507;-73
2024/04/08 07:08:44;;;;;;;8.00;7.20;;;;;;;;;;5450614;26;20462;-74
2024/04/08 07:11:10;;;;;;;10.93;7.03;;;;;;;;;;5455279;26;20238;-72
2024/04/08 07:13:40;;;;;;;7.43;5.90;;;;;;;;;;5456874;26;21007;-73
2024/04/08 07:16:05;;;;;;;7.53;6.83;;;;;;;;;;5447408;26;20377;-75
2024/04/08 07:18:34;;;;;;;7.70;7.00;;;;;;;;;;5452252;26;20480;-72
2024/04/08 07:20:59;;;;;;;11.53;7.20;;;;;;;;;;5446106;26;20326;-71
2024/04/08 07:23:28;;;;;;;8.83;7.10;;;;;;;;;;5452728;26;20497;-80
2024/04/08 07:25:56;;;;;;;9.37;7.40;;;;;;;;;;5454600;26;20234;-71
2024/04/08 07:28:24;;;;;;;8.40;7.50;;;;;;;;;;5444512;26;20570;-70
2024/04/08 07:30:50;;;;;;;7.07;6.43;;;;;;;;;;5457034;26;20627;-79
2024/04/08 07:33:18;;;;;;;9.30;7.37;;;;;;;;;;5443822;26;21072;-72
2024/04/08 07:35:44;;;;;;;7.20;6.37;;;;;;;;;;5449799;26;20242;-74
2024/04/08 07:38:13;;;;;;;10.73;7.40;;;;;;;;;;5457886;26;20544;-69
2024/04/08 07:40:38;;;;;;;8.07;7.00;;;;;;;;;;5447192;26;20623;-77
2024/04/08 07:43:09;;;;;;;8.50;6.43;;;;;;;;;;5453733;26;20465;-73
2024/04/08 07:45:35;;;;;;;8.37;6.83;;;;;;;;;;5453560;26;20281;-74
2024/04/08 07:48:03;;;;;;;8.10;6.17;;;;;;;;;;5446039;26;20480;-74
2024/04/08 07:50:29;;;;;;;6.83;6.20;;;;;;;;;;5463237;26;20332;-74
2024/04/08 07:52:57;;;;;;;6.60;6.10;;;;;;;;;;5459140;26;20476;-73
2024/04/08 07:55:22;;;;;;;8.20;6.73;;;;;;;;;;5457815;26;20297;-73
2024/04/08 07:57:51;;;;;;;9.47;6.73;;;;;;;;;;5475293;26;20585;-75
2024/04/08 08:00:19;;;;;;;7.93;7.13;;;;;;;;;;5451643;26;20259;-73
2024/04/08 08:02:48;;;;;;;9.53;6.20;;;;;;;;;;5443587;26;20578;-73
2024/04/08 08:05:13;;;;;;;8.60;6.90;;;;;;;;;;5466210;26;20896;-72
2024/04/08 08:07:42;;;;;;;7.63;6.87;;;;;;;;;;5453600;26;20945;-71
2024/04/08 08:10:10;;;;;;;10.00;7.40;;;;;;;;;;5458376;26;20304;-71
2024/04/08 08:12:36;;;;;;;8.53;7.63;;;;;;;;;;5447282;26;20464;-72
2024/04/08 08:15:04;;;;;;;7.73;7.00;;;;;;;;;;5461234;26;20553;-70
2024/04/08 08:17:35;;;;;;;10.60;7.97;;;;;;;;;;5452302;26;20277;-70
2024/04/08 08:20:04;;;;;;;9.37;6.07;;;;;;;;;;5458340;26;20523;-70
2024/04/08 08:22:33;;;;;;;10.10;7.70;;;;;;;;;;5455211;26;20460;-74
2024/04/08 08:25:01;;;;;;;8.57;6.23;;;;;;;;;;5463344;26;20536;-72
2024/04/08 08:27:29;;;;;;;6.73;6.13;;;;;;;;;;5449783;26;20531;-70
2024/04/08 08:29:58;;;;;;;8.90;7.40;;;;;;;;;;5451377;26;20467;-69
2024/04/08 08:32:26;;;;;;;7.60;6.70;;;;;;;;;;5474822;26;20550;-68
2024/04/08 08:34:57;;;;;;;10.53;8.30;;;;;;;;;;5450832;26;20582;-74
2024/04/08 08:37:23;;;;;;;12.53;7.20;;;;;;;;;;5453480;26;20478;-69
2024/04/08 08:39:52;;;;;;;7.60;7.00;;;;;;;;;;5461562;26;20522;-70
2024/04/08 08:42:21;;;;;;;7.50;6.70;;;;;;;;;;5475883;26;20229;-66
2024/04/08 08:44:52;;;;;;;7.90;7.10;;;;;;;;;;5472257;26;20630;-70
2024/04/08 08:47:19;;;;;;;8.63;7.83;;;;;;;;;;5459550;26;20468;-68
2024/04/08 08:49:48;;;;;;;7.80;7.10;;;;;;;;;;5454424;26;20540;-68
2024/04/08 08:52:17;;;;;;;9.47;8.50;;;;;;;;;;5451551;26;20479;-68
2024/04/08 08:54:45;;;;;;;10.20;8.10;;;;;;;;;;5439553;26;20586;-70
2024/04/08 08:57:11;;;;;;;8.70;7.70;;;;;;;;;;5442470;26;20472;-68
2024/04/08 08:59:40;;;;;;;8.03;7.40;;;;;;;;;;5445735;26;20480;-69
2024/04/08 09:02:08;;;;;;;8.43;7.57;;;;;;;;;;5437276;26;20539;-68
2024/04/08 09:04:37;;;;;;;7.90;7.20;;;;;;;;;;5449029;26;20655;-69
2024/04/08 09:07:03;;;;;;;10.50;7.43;;;;;;;;;;5439751;26;21388;-69
2024/04/08 09:09:33;;;;;;;9.60;8.63;;;;;;;;;;5438466;26;20598;-68
2024/04/08 09:11:59;;;;;;;9.90;8.90;;;;;;;;;;5440593;26;20343;-75
2024/04/08 09:14:28;;;;;;;10.00;8.23;;;;;;;;;;5445993;26;21603;-73
2024/04/08 09:17:03;;;;;;;9.90;8.10;;;;;;;;;;5435215;26;20269;-72
2024/04/08 09:19:31;;;;;;;9.40;8.50;;;;;;;;;;5456770;26;20459;-75
2024/04/08 09:21:57;;;;;;;10.07;8.37;;;;;;;;;;5459938;26;21423;-74
2024/04/08 09:24:25;;;;;;;21.70;9.23;;;;;;;;;;5466460;26;20545;-70
2024/04/08 09:26:54;;;;;;;9.40;8.60;;;;;;;;;;5437245;26;20801;-73
2024/04/08 09:29:22;;;;;;;8.30;7.70;;;;;;;;;;5457981;26;20472;-74
2024/04/08 09:31:48;;;;;;;9.10;8.20;;;;;;;;;;5466073;26;20499;-75
2024/04/08 09:34:17;;;;;;;8.73;8.00;;;;;;;;;;5463013;26;21164;-71
2024/04/08 09:36:43;;;;;;;10.07;8.30;;;;;;;;;;5463305;26;20253;-70
2024/04/08 09:39:12;;;;;;;9.07;8.20;;;;;;;;;;5459013;26;20601;-70
2024/04/08 09:41:37;;;;;;;9.70;8.20;;;;;;;;;;5459136;26;20230;-70
2024/04/08 09:44:10;;;;;;;9.60;8.70;;;;;;;;;;5457613;26;20516;-72
2024/04/08 09:46:36;;;;;;;8.33;7.53;;;;;;;;;;5462828;26;20458;-71
2024/04/08 09:49:05;;;;;;;9.50;8.60;;;;;;;;;;5482161;26;20462;-70
2024/04/08 09:51:31;;;;;;;10.23;9.10;;;;;;;;;;5463821;26;20234;-69
2024/04/08 09:53:59;;;;;;;9.43;8.57;;;;;;;;;;5472282;26;20552;-67
2024/04/08 09:56:29;;;;;;;10.90;9.90;;;;;;;;;;5457408;26;20281;-69
2024/04/08 09:59:03;;;;;;;10.57;8.83;;;;;;;;;;5461324;26;20567;-73
2024/04/08 10:01:31;;;;;;;10.90;8.00;;;;;;;;;;5463820;26;20526;-75
2024/04/08 10:04:02;;;;;;;9.00;8.10;;;;;;;;;;5464249;26;20524;-70
2024/04/08 10:06:29;;;;;;;10.23;7.30;;;;;;;;;;5454342;26;20465;-74
2024/04/08 10:08:57;;;;;;;11.40;7.67;;;;;;;;;;5458604;26;20478;-72
2024/04/08 10:11:23;;;;;;;8.40;7.77;;;;;;;;;;5453564;26;20460;-76
2024/04/08 10:13:52;;;;;;;8.07;7.40;;;;;;;;;;5455196;26;20463;-72
2024/04/08 10:16:18;;;;;;;8.30;7.70;;;;;;;;;;5471513;26;20471;-74
2024/04/08 10:18:53;;;;;;;8.23;7.43;;;;;;;;;;5465566;26;20580;-73
2024/04/08 10:21:19;;;;;;;8.10;7.43;;;;;;;;;;5457934;26;20466;-72
2024/04/08 10:23:48;;;;;;;9.60;8.70;;;;;;;;;;5463218;26;20460;-72
2024/04/08 10:26:14;;;;;;;9.90;8.50;;;;;;;;;;5467604;26;20970;-77
2024/04/08 10:28:43;;;;;;;8.40;7.80;;;;;;;;;;5467408;26;20461;-66
2024/04/08 10:31:09;;;;;;;8.73;7.83;;;;;;;;;;5466357;26;20528;-71
2024/04/08 10:33:37;;;;;;;8.70;7.90;;;;;;;;;;5465661;26;20457;-73
2024/04/08 10:36:06;;;;;;;8.37;7.57;;;;;;;;;;5460145;26;20566;-73
2024/04/08 10:38:34;;;;;;;7.63;7.00;;;;;;;;;;5464105;26;20480;-74
2024/04/08 10:41:04;;;;;;;9.17;8.27;;;;;;;;;;5464391;26;20569;-73
2024/04/08 10:43:33;;;;;;;8.93;8.13;;;;;;;;;;5462170;26;20751;-73
2024/04/08 10:45:59;;;;;;;9.70;7.83;;;;;;;;;;5475699;26;20535;-73
2024/04/08 10:48:27;;;;;;;8.37;7.30;;;;;;;;;;5461015;26;20464;-73
2024/04/08 10:50:53;;;;;;;9.93;7.30;;;;;;;;;;5468925;26;20275;-73
2024/04/08 10:53:24;;;;;;;10.13;7.43;;;;;;;;;;5463427;26;20467;-72
2024/04/08 10:55:49;;;;;;;9.73;7.53;;;;;;;;;;5445385;26;20283;-72
2024/04/08 10:58:18;;;;;;;8.10;7.33;;;;;;;;;;5459039;26;20541;-73
2024/04/08 11:00:45;;;;;;;7.80;7.10;;;;;;;;;;5455561;26;20243;-71
2024/04/08 11:03:14;;;;;;;8.47;7.10;;;;;;;;;;5457861;26;20456;-73
2024/04/08 11:05:39;;;;;;;8.00;7.20;;;;;;;;;;5456643;26;20550;-73
2024/04/08 11:08:08;;;;;;;8.50;7.00;;;;;;;;;;5455706;26;21035;-75
2024/04/08 11:10:36;;;;;;;7.37;6.23;;;;;;;;;;5462035;26;20294;-76
2024/04/08 11:13:05;;;;;;;10.63;7.10;;;;;;;;;;5461841;26;20460;-76
2024/04/08 11:15:30;;;;;;;9.03;7.07;;;;;;;;;;5454805;26;20563;-74
2024/04/08 11:17:59;;;;;;;8.00;7.13;;;;;;;;;;5452803;26;20488;-73
2024/04/08 11:20:26;;;;;;;8.47;7.40;;;;;;;;;;5450114;26;20226;-76
2024/04/08 11:22:54;;;;;;;8.73;7.10;;;;;;;;;;5466781;26;20462;-72
2024/04/08 11:25:20;;;;;;;8.43;7.60;;;;;;;;;;5463274;26;21306;-71
2024/04/08 11:27:51;;;;;;;7.90;7.10;;;;;;;;;;5455821;26;20460;-73
2024/04/08 11:30:17;;;;;;;12.37;8.10;;;;;;;;;;5455405;26;20233;-71
2024/04/08 11:32:45;;;;;;;8.00;7.20;;;;;;;;;;5458850;26;20472;-73
2024/04/08 11:35:11;;;;;;;8.10;7.37;;;;;;;;;;5445796;26;20652;-76
2024/04/08 11:37:39;;;;;;;8.97;7.30;;;;;;;;;;5448904;26;20505;-73
2024/04/08 11:40:06;;;;;;;12.33;7.77;;;;;;;;;;5452109;26;20568;-72
2024/04/08 11:42:34;;;;;;;9.43;7.33;;;;;;;;;;5460646;26;20460;-72
2024/04/08 11:45:03;;;;;;;9.40;8.60;;;;;;;;;;5469497;26;20468;-72
2024/04/08 11:47:31;;;;;;;10.17;7.53;;;;;;;;;;5447678;26;20575;-71
2024/04/08 11:49:57;;;;;;;8.57;7.87;;;;;;;;;;5460855;26;20627;-71
2024/04/08 11:52:25;;;;;;;10.13;8.17;;;;;;;;;;5453230;26;20483;-75
2024/04/08 11:54:51;;;;;;;8.07;7.37;;;;;;;;;;5457432;26;20222;-76
2024/04/08 11:57:19;;;;;;;7.40;6.80;;;;;;;;;;5452750;26;20525;-73
2024/04/08 11:59:45;;;;;;;7.97;7.17;;;;;;;;;;5449459;26;20238;-74
2024/04/08 12:02:16;;;;;;;9.33;7.40;;;;;;;;;;5483233;26;20560;-76
2024/04/08 12:04:45;;;;;;;10.60;7.70;;;;;;;;;;5455229;26;20278;-75
2024/04/08 12:07:15;;;;;;;11.77;8.10;;;;;;;;;;5452107;26;20456;-73
2024/04/08 12:09:41;;;;;;;8.30;7.50;;;;;;;;;;5462339;26;20699;-74
2024/04/08 12:12:11;;;;;;;9.60;8.03;;;;;;;;;;5469234;26;20456;-73
2024/04/08 12:14:37;;;;;;;8.93;8.13;;;;;;;;;;5457370;26;20230;-76
2024/04/08 12:17:06;;;;;;;9.73;7.80;;;;;;;;;;5449448;26;20514;-75
2024/04/08 12:19:34;;;;;;;9.03;8.13;;;;;;;;;;5456376;26;20705;-76
2024/04/08 12:22:02;;;;;;;7.80;7.10;;;;;;;;;;5459644;26;20505;-75
2024/04/08 12:24:28;;;;;;;8.77;7.97;;;;;;;;;;5467161;26;20700;-76
2024/04/08 12:26:56;;;;;;;9.43;8.53;;;;;;;;;;5470679;26;20483;-76
2024/04/08 12:29:22;;;;;;;9.03;8.13;;;;;;;;;;5454777;26;20230;-78
2024/04/08 12:31:50;;;;;;;10.43;7.90;;;;;;;;;;5444577;26;20548;-74
2024/04/08 12:34:16;;;;;;;8.70;8.00;;;;;;;;;;5451693;26;20265;-75
2024/04/08 12:36:47;;;;;;;9.13;8.03;;;;;;;;;;5460351;26;20524;-73
2024/04/08 12:39:12;;;;;;;9.20;8.40;;;;;;;;;;5445429;26;20241;-73
2024/04/08 12:41:41;;;;;;;9.40;8.70;;;;;;;;;;5444053;26;21005;-70
2024/04/08 12:44:09;;;;;;;9.53;7.93;;;;;;;;;;5436672;26;20239;-73
2024/04/08 12:46:37;;;;;;;8.43;7.93;;;;;;;;;;5450167;26;20467;-75
2024/04/08 12:49:03;;;;;;;9.60;7.77;;;;;;;;;;5466446;26;20516;-77
2024/04/08 12:51:31;;;;;;;8.87;7.10;;;;;;;;;;5462900;26;21001;-70
2024/04/08 12:53:59;;;;;;;10.57;8.00;;;;;;;;;;5452732;26;20266;-72
2024/04/08 12:56:27;;;;;;;8.50;7.43;;;;;;;;;;5456263;26;20481;-76
2024/04/08 12:58:56;;;;;;;8.03;7.40;;;;;;;;;;5464565;26;20488;-70
2024/04/08 13:01:24;;;;;;;8.23;7.47;;;;;;;;;;5469795;26;20472;-73
2024/04/08 13:03:50;;;;;;;7.97;7.37;;;;;;;;;;5467174;26;20463;-76
2024/04/08 13:06:18;;;;;;;8.33;7.50;;;;;;;;;;5453258;26;20504;-74
2024/04/08 13:08:43;;;;;;;8.20;7.50;;;;;;;;;;5465749;26;20276;-73
2024/04/08 13:11:15;;;;;;;8.40;7.60;;;;;;;;;;5454896;26;20459;-76
2024/04/08 13:13:41;;;;;;;8.83;7.93;;;;;;;;;;5463475;26;20280;-81
2024/04/08 13:16:10;;;;;;;10.90;7.77;;;;;;;;;;5446467;26;20468;-73
2024/04/08 13:18:37;;;;;;;7.33;6.83;;;;;;;;;;5464944;26;20347;-79
2024/04/08 13:21:06;;;;;;;8.67;7.87;;;;;;;;;;5474594;26;20549;-71
2024/04/08 13:23:32;;;;;;;8.80;7.90;;;;;;;;;;5443520;26;20687;-71
2024/04/08 13:26:00;;;;;;;9.53;8.30;;;;;;;;;;5452699;26;20462;-71
2024/04/08 13:28:31;;;;;;;9.80;8.73;;;;;;;;;;5446324;26;20234;-74
2024/04/08 13:30:59;;;;;;;9.30;7.90;;;;;;;;;;5460195;26;20480;-72
2024/04/08 13:33:25;;;;;;;8.93;8.20;;;;;;;;;;5452316;26;20533;-71
2024/04/08 13:35:53;;;;;;;8.67;7.87;;;;;;;;;;5462954;26;21006;-74
2024/04/08 13:38:19;;;;;;;8.10;7.40;;;;;;;;;;5453819;26;20273;-77
2024/04/08 13:40:47;;;;;;;9.87;8.10;;;;;;;;;;5457234;26;20466;-80
2024/04/08 13:43:15;;;;;;;9.43;8.53;;;;;;;;;;5449384;26;20242;-76
2024/04/08 13:45:46;;;;;;;8.03;7.33;;;;;;;;;;5458455;26;20613;-87
2024/04/08 13:48:11;;;;;;;8.40;7.57;;;;;;;;;;5472874;26;21253;-90
2024/04/08 13:50:40;;;;;;;7.87;7.27;;;;;;;;;;5472521;26;20469;-92
2024/04/08 13:53:05;;;;;;;8.53;7.40;;;;;;;;;;5466545;26;20323;-76
2024/04/08 13:55:33;;;;;;;10.37;8.23;;;;;;;;;;5468322;26;20472;-77
2024/04/08 13:57:59;;;;;;;7.30;6.73;;;;;;;;;;5454174;26;20231;-75
2024/04/08 14:00:27;;;;;;;7.30;6.60;;;;;;;;;;5453806;26;21146;-74
2024/04/08 14:02:55;;;;;;;7.77;7.17;;;;;;;;;;5463043;26;20226;-77
2024/04/08 14:05:24;;;;;;;9.93;7.60;;;;;;;;;;5443567;26;20520;-76
2024/04/08 14:07:49;;;;;;;9.90;7.67;;;;;;;;;;5454272;26;20471;-75
2024/04/08 14:10:18;;;;;;;8.20;7.13;;;;;;;;;;5461096;26;20562;-76
2024/04/08 14:12:43;;;;;;;10.13;8.07;;;;;;;;;;5475167;26;20283;-74
2024/04/08 14:15:11;;;;;;;8.77;7.60;;;;;;;;;;5460126;26;21014;-74
2024/04/08 14:17:37;;;;;;;8.77;7.50;;;;;;;;;;5460502;26;20285;-75
2024/04/08 14:20:09;;;;;;;8.67;7.77;;;;;;;;;;5442848;26;20963;-76
2024/04/08 14:22:34;;;;;;;8.20;7.00;;;;;;;;;;5449719;26;20277;-74
2024/04/08 14:25:03;;;;;;;9.47;7.70;;;;;;;;;;5454472;26;20477;-72
2024/04/08 14:27:28;;;;;;;9.73;7.30;;;;;;;;;;5461807;26;20607;-71
2024/04/08 14:29:57;;;;;;;7.27;6.67;;;;;;;;;;5447336;26;20491;-75
2024/04/08 14:32:23;;;;;;;8.20;7.40;;;;;;;;;;5421020;26;20249;-76
2024/04/08 14:34:51;;;;;;;8.93;8.10;;;;;;;;;;5413315;26;21343;-80
2024/04/08 14:37:19;;;;;;;10.80;7.37;;;;;;;;;;5418389;26;20243;-77
2024/04/08 14:39:48;;;;;;;12.07;7.70;;;;;;;;;;5417686;26;20477;-77